sensor_id;sensor_type;location;lat;lon;timestamp;temperature;humidity
18268;DHT22;9260;49.998;19.880;2023-03-16T00:07:15;-0.90;99.90
18268;DHT22;9260;49.998;19.880;2023-03-16T00:17:20;-1.40;99.90
18268;DHT22;9260;49.998;19.880;2023-03-16T00:27:25;-1.90;99.90
18268;DHT22;9260;49.998;19.880;2023-03-16T00:37:31;-2.40;99.90
18268;DHT22;9260;49.998;19.880;2023-03-16T00:47:34;-2.90;99.90
18268;DHT22;9260;49.998;19.880;2023-03-16T00:57:39;-3.20;99.90
18268;DHT22;9260;49.998;19.880;2023-03-16T01:07:43;-3.50;99.90
18268;DHT22;9260;49.998;19.880;2023-03-16T01:17:48;-3.70;99.90
18268;DHT22;9260;49.998;19.880;2023-03-16T01:27:52;-3.70;99.90
18268;DHT22;9260;49.998;19.880;2023-03-16T01:37:57;-3.90;99.90
18268;DHT22;9260;49.998;19.880;2023-03-16T01:48:01;-4.00;99.90
18268;DHT22;9260;49.998;19.880;2023-03-16T01:58:07;-4.20;99.90
18268;DHT22;9260;49.998;19.880;2023-03-16T02:08:11;-4.30;99.90
18268;DHT22;9260;49.998;19.880;2023-03-16T02:18:17;-4.40;99.90
18268;DHT22;9260;49.998;19.880;2023-03-16T02:28:29;-4.50;99.90
18268;DHT22;9260;49.998;19.880;2023-03-16T02:38:37;-4.70;99.90
18268;DHT22;9260;49.998;19.880;2023-03-16T02:48:44;-4.80;99.90
18268;DHT22;9260;49.998;19.880;2023-03-16T02:58:51;-4.80;99.90
18268;DHT22;9260;49.998;19.880;2023-03-16T03:08:55;-5.00;99.90
18268;DHT22;9260;49.998;19.880;2023-03-16T03:19:01;-5.10;99.90
18268;DHT22;9260;49.998;19.880;2023-03-16T03:29:09;-5.20;99.90
18268;DHT22;9260;49.998;19.880;2023-03-16T03:39:15;-5.20;99.90
18268;DHT22;9260;49.998;19.880;2023-03-16T03:49:22;-5.20;99.90
18268;DHT22;9260;49.998;19.880;2023-03-16T03:59:27;-5.10;99.90
18268;DHT22;9260;49.998;19.880;2023-03-16T04:09:50;-5.20;99.90
18268;DHT22;9260;49.998;19.880;2023-03-16T04:20:04;-5.30;99.90
18268;DHT22;9260;49.998;19.880;2023-03-16T04:30:14;-5.60;99.90
18268;DHT22;9260;49.998;19.880;2023-03-16T04:40:24;-5.60;99.90
18268;DHT22;9260;49.998;19.880;2023-03-16T04:50:37;-5.60;99.90
18268;DHT22;9260;49.998;19.880;2023-03-16T05:00:43;-5.60;99.90
18268;DHT22;9260;49.998;19.880;2023-03-16T05:10:55;-5.50;99.90
18268;DHT22;9260;49.998;19.880;2023-03-16T05:21:05;-5.40;99.90
18268;DHT22;9260;49.998;19.880;2023-03-16T05:31:25;-5.20;99.90
18268;DHT22;9260;49.998;19.880;2023-03-16T05:41:34;-4.90;99.90
18268;DHT22;9260;49.998;19.880;2023-03-16T05:52:01;-4.60;99.90
18268;DHT22;9260;49.998;19.880;2023-03-16T06:02:09;-4.10;99.90
18268;DHT22;9260;49.998;19.880;2023-03-16T06:12:14;-3.60;99.90
18268;DHT22;9260;49.998;19.880;2023-03-16T06:22:20;-2.80;99.90
18268;DHT22;9260;49.998;19.880;2023-03-16T06:32:25;-1.80;99.90
18268;DHT22;9260;49.998;19.880;2023-03-16T06:42:30;0.50;99.90
18268;DHT22;9260;49.998;19.880;2023-03-16T06:52:35;3.90;99.90
18268;DHT22;9260;49.998;19.880;2023-03-16T07:02:40;6.30;99.90
18268;DHT22;9260;49.998;19.880;2023-03-16T07:12:47;8.60;99.90
18268;DHT22;9260;49.998;19.880;2023-03-16T07:22:52;10.80;99.90
18268;DHT22;9260;49.998;19.880;2023-03-16T07:32:56;12.10;99.90
18268;DHT22;9260;49.998;19.880;2023-03-16T07:43:02;14.00;99.90
18268;DHT22;9260;49.998;19.880;2023-03-16T07:53:14;16.20;99.90
18268;DHT22;9260;49.998;19.880;2023-03-16T08:03:25;17.60;99.90
18268;DHT22;9260;49.998;19.880;2023-03-16T08:13:30;19.10;99.90
18268;DHT22;9260;49.998;19.880;2023-03-16T08:23:35;20.80;99.90
18268;DHT22;9260;49.998;19.880;2023-03-16T08:33:43;22.30;99.90
18268;DHT22;9260;49.998;19.880;2023-03-16T08:43:53;23.40;99.90
18268;DHT22;9260;49.998;19.880;2023-03-16T08:53:57;23.40;99.90
18268;DHT22;9260;49.998;19.880;2023-03-16T09:04:03;23.70;99.90
18268;DHT22;9260;49.998;19.880;2023-03-16T09:14:06;16.80;99.90
18268;DHT22;9260;49.998;19.880;2023-03-16T09:24:11;17.30;99.90
18268;DHT22;9260;49.998;19.880;2023-03-16T09:34:15;16.50;99.90
18268;DHT22;9260;49.998;19.880;2023-03-16T09:44:30;15.20;99.90
18268;DHT22;9260;49.998;19.880;2023-03-16T09:54:40;19.10;99.90
18268;DHT22;9260;49.998;19.880;2023-03-16T10:04:58;19.70;99.90
18268;DHT22;9260;49.998;19.880;2023-03-16T10:15:09;16.30;99.90
18268;DHT22;9260;49.998;19.880;2023-03-16T10:25:21;14.60;99.90
18268;DHT22;9260;49.998;19.880;2023-03-16T10:35:37;14.00;99.90
18268;DHT22;9260;49.998;19.880;2023-03-16T10:45:45;10.80;99.90
18268;DHT22;9260;49.998;19.880;2023-03-16T10:55:49;12.60;99.90
18268;DHT22;9260;49.998;19.880;2023-03-16T11:06:03;18.60;99.90
18268;DHT22;9260;49.998;19.880;2023-03-16T11:16:20;28.40;99.90
18268;DHT22;9260;49.998;19.880;2023-03-16T11:26:31;19.70;99.90
18268;DHT22;9260;49.998;19.880;2023-03-16T11:36:43;20.70;99.90
18268;DHT22;9260;49.998;19.880;2023-03-16T11:46:56;19.20;99.90
18268;DHT22;9260;49.998;19.880;2023-03-16T11:57:07;29.50;99.90
18268;DHT22;9260;49.998;19.880;2023-03-16T12:07:34;19.00;99.90
18268;DHT22;9260;49.998;19.880;2023-03-16T12:17:44;16.60;99.90
18268;DHT22;9260;49.998;19.880;2023-03-16T12:27:52;19.60;99.90
18268;DHT22;9260;49.998;19.880;2023-03-16T12:38:14;20.10;99.90
18268;DHT22;9260;49.998;19.880;2023-03-16T12:48:27;29.90;99.90
18268;DHT22;9260;49.998;19.880;2023-03-16T12:58:32;33.30;99.90
18268;DHT22;9260;49.998;19.880;2023-03-16T13:08:43;34.40;99.90
18268;DHT22;9260;49.998;19.880;2023-03-16T13:18:50;33.60;99.90
18268;DHT22;9260;49.998;19.880;2023-03-16T13:28:55;25.70;99.90
18268;DHT22;9260;49.998;19.880;2023-03-16T13:39:04;29.40;99.90
18268;DHT22;9260;49.998;19.880;2023-03-16T13:49:12;28.50;99.90
18268;DHT22;9260;49.998;19.880;2023-03-16T13:59:16;17.60;99.90
18268;DHT22;9260;49.998;19.880;2023-03-16T14:09:23;13.40;99.90
18268;DHT22;9260;49.998;19.880;2023-03-16T14:19:29;12.50;99.90
18268;DHT22;9260;49.998;19.880;2023-03-16T14:29:45;18.50;99.90
18268;DHT22;9260;49.998;19.880;2023-03-16T14:40:01;19.50;99.90
18268;DHT22;9260;49.998;19.880;2023-03-16T14:50:14;17.50;99.90
18268;DHT22;9260;49.998;19.880;2023-03-16T15:00:21;16.50;99.90
18268;DHT22;9260;49.998;19.880;2023-03-16T15:10:28;13.80;99.90
18268;DHT22;9260;49.998;19.880;2023-03-16T15:20:35;11.20;99.90
18268;DHT22;9260;49.998;19.880;2023-03-16T15:30:45;9.00;99.90
18268;DHT22;9260;49.998;19.880;2023-03-16T15:40:50;7.70;99.90
18268;DHT22;9260;49.998;19.880;2023-03-16T15:50:58;7.10;99.90
18268;DHT22;9260;49.998;19.880;2023-03-16T16:01:04;6.40;99.90
18268;DHT22;9260;49.998;19.880;2023-03-16T16:11:14;5.50;99.90
18268;DHT22;9260;49.998;19.880;2023-03-16T16:21:20;4.80;99.90
18268;DHT22;9260;49.998;19.880;2023-03-16T16:31:27;4.60;99.90
18268;DHT22;9260;49.998;19.880;2023-03-16T16:41:33;4.40;99.90
18268;DHT22;9260;49.998;19.880;2023-03-16T16:51:39;3.70;99.90
18268;DHT22;9260;49.998;19.880;2023-03-16T17:01:44;2.90;99.90
18268;DHT22;9260;49.998;19.880;2023-03-16T17:11:49;2.00;99.90
18268;DHT22;9260;49.998;19.880;2023-03-16T17:21:56;1.30;99.90
18268;DHT22;9260;49.998;19.880;2023-03-16T17:32:02;0.80;99.90
18268;DHT22;9260;49.998;19.880;2023-03-16T17:42:13;0.30;99.90
18268;DHT22;9260;49.998;19.880;2023-03-16T17:52:21;0.00;99.90
18268;DHT22;9260;49.998;19.880;2023-03-16T18:02:37;-0.30;99.90
18268;DHT22;9260;49.998;19.880;2023-03-16T18:12:44;-0.70;99.90
18268;DHT22;9260;49.998;19.880;2023-03-16T18:22:48;-1.20;99.90
18268;DHT22;9260;49.998;19.880;2023-03-16T18:32:55;-1.50;99.90
18268;DHT22;9260;49.998;19.880;2023-03-16T18:43:00;-1.80;99.90
18268;DHT22;9260;49.998;19.880;2023-03-16T18:53:05;-2.00;99.90
18268;DHT22;9260;49.998;19.880;2023-03-16T19:03:19;-2.10;99.90
18268;DHT22;9260;49.998;19.880;2023-03-16T19:13:26;-2.40;99.90
18268;DHT22;9260;49.998;19.880;2023-03-16T19:23:32;-2.60;99.90
18268;DHT22;9260;49.998;19.880;2023-03-16T19:33:39;-2.70;99.90
18268;DHT22;9260;49.998;19.880;2023-03-16T19:43:43;-2.80;99.90
18268;DHT22;9260;49.998;19.880;2023-03-16T19:53:49;-2.90;99.90
18268;DHT22;9260;49.998;19.880;2023-03-16T20:03:54;-3.10;99.90
18268;DHT22;9260;49.998;19.880;2023-03-16T20:14:00;-3.20;99.90
18268;DHT22;9260;49.998;19.880;2023-03-16T20:24:12;-3.50;99.90
18268;DHT22;9260;49.998;19.880;2023-03-16T20:34:21;-3.80;99.90
18268;DHT22;9260;49.998;19.880;2023-03-16T20:44:27;-4.10;99.90
18268;DHT22;9260;49.998;19.880;2023-03-16T20:54:32;-4.10;99.90
18268;DHT22;9260;49.998;19.880;2023-03-16T21:04:37;-4.30;99.90
18268;DHT22;9260;49.998;19.880;2023-03-16T21:14:45;-4.50;99.90
18268;DHT22;9260;49.998;19.880;2023-03-16T21:24:49;-4.50;99.90
18268;DHT22;9260;49.998;19.880;2023-03-16T21:34:56;-4.50;99.90
18268;DHT22;9260;49.998;19.880;2023-03-16T21:45:00;-4.60;99.90
18268;DHT22;9260;49.998;19.880;2023-03-16T21:55:14;-4.70;99.90
18268;DHT22;9260;49.998;19.880;2023-03-16T22:05:31;-4.90;99.90
18268;DHT22;9260;49.998;19.880;2023-03-16T22:15:39;-5.00;99.90
18268;DHT22;9260;49.998;19.880;2023-03-16T22:25:44;-5.20;99.90
18268;DHT22;9260;49.998;19.880;2023-03-16T22:35:50;-5.10;99.90
18268;DHT22;9260;49.998;19.880;2023-03-16T22:45:54;-5.10;99.90
18268;DHT22;9260;49.998;19.880;2023-03-16T22:55:59;-5.20;99.90
18268;DHT22;9260;49.998;19.880;2023-03-16T23:06:03;-5.30;99.90
18268;DHT22;9260;49.998;19.880;2023-03-16T23:16:17;-5.40;99.90
18268;DHT22;9260;49.998;19.880;2023-03-16T23:26:24;-5.40;99.90
18268;DHT22;9260;49.998;19.880;2023-03-16T23:36:30;-5.60;99.90
18268;DHT22;9260;49.998;19.880;2023-03-16T23:46:34;-5.70;99.90
18268;DHT22;9260;49.998;19.880;2023-03-16T23:56:39;-5.80;99.90
